createdAt,value
2023-01-22T00:00:03.981Z,522.00
2023-01-22T00:00:34.006Z,523.00
2023-01-22T00:01:04.022Z,524.00
2023-01-22T00:01:34.027Z,522.00
2023-01-22T00:02:04.031Z,521.00
2023-01-22T00:02:34.088Z,520.00
2023-01-22T00:03:04.089Z,520.00
2023-01-22T00:03:34.136Z,523.00
2023-01-22T00:04:04.251Z,524.00
2023-01-22T00:04:34.158Z,524.00
2023-01-22T00:05:04.160Z,523.00
2023-01-22T00:05:34.175Z,524.00
2023-01-22T00:06:04.199Z,529.00
2023-01-22T00:06:34.192Z,528.00
2023-01-22T00:07:04.192Z,528.00
2023-01-22T00:07:34.233Z,528.00
2023-01-22T00:08:04.205Z,529.00
2023-01-22T00:08:34.220Z,527.00
2023-01-22T00:09:04.211Z,528.00
2023-01-22T00:09:34.235Z,527.00
2023-01-22T00:10:04.239Z,527.00
2023-01-22T00:10:34.263Z,528.00
2023-01-22T00:11:04.267Z,528.00
2023-01-22T00:11:34.271Z,528.00
2023-01-22T00:12:04.273Z,527.00
2023-01-22T00:12:34.281Z,527.00
2023-01-22T00:13:04.286Z,529.00
2023-01-22T00:13:34.288Z,531.00
2023-01-22T00:14:04.337Z,530.00
2023-01-22T00:14:34.365Z,530.00
2023-01-22T00:15:04.433Z,529.00
2023-01-22T00:15:34.448Z,529.00
2023-01-22T00:16:04.518Z,530.00
2023-01-22T00:16:34.529Z,529.00
2023-01-22T00:17:04.549Z,529.00
2023-01-22T00:17:34.547Z,530.00
2023-01-22T00:18:04.556Z,531.00
2023-01-22T00:18:34.547Z,530.00
2023-01-22T00:19:04.547Z,530.00
2023-01-22T00:19:34.575Z,531.00
2023-01-22T00:20:04.599Z,530.00
2023-01-22T00:20:34.608Z,530.00
2023-01-22T00:21:04.615Z,531.00
2023-01-22T00:21:34.622Z,531.00
2023-01-22T00:22:04.626Z,530.00
2023-01-22T00:22:34.627Z,532.00
2023-01-22T00:23:04.658Z,534.00
2023-01-22T00:23:34.657Z,533.00
2023-01-22T00:24:04.658Z,533.00
2023-01-22T00:24:34.650Z,533.00
2023-01-22T00:25:04.675Z,533.00
2023-01-22T00:25:34.718Z,533.00
2023-01-22T00:26:04.707Z,532.00
2023-01-22T00:26:34.709Z,530.00
2023-01-22T00:27:04.714Z,531.00
2023-01-22T00:27:34.731Z,531.00
2023-01-22T00:28:04.727Z,532.00
2023-01-22T00:28:34.736Z,532.00
2023-01-22T00:29:04.740Z,534.00
2023-01-22T00:29:34.748Z,532.00
2023-01-22T00:30:04.765Z,533.00
2023-01-22T00:30:34.780Z,535.00
2023-01-22T00:31:04.903Z,536.00
2023-01-22T00:31:34.919Z,534.00
2023-01-22T00:32:05.038Z,536.00
2023-01-22T00:32:34.938Z,537.00
2023-01-22T00:33:05.024Z,534.00
2023-01-22T00:33:35.114Z,534.00
2023-01-22T00:34:05.196Z,535.00
2023-01-22T00:34:35.280Z,536.00
2023-01-22T00:35:05.357Z,535.00
2023-01-22T00:35:35.482Z,535.00
2023-01-22T00:36:05.555Z,535.00
2023-01-22T00:36:35.629Z,535.00
2023-01-22T00:37:05.715Z,535.00
2023-01-22T00:37:35.792Z,537.00
2023-01-22T00:38:05.879Z,537.00
2023-01-22T00:38:36.001Z,536.00
2023-01-22T00:39:06.055Z,535.00
2023-01-22T00:39:36.135Z,533.00
2023-01-22T00:40:06.218Z,530.00
2023-01-22T00:40:36.336Z,530.00
2023-01-22T00:41:06.341Z,528.00
2023-01-22T00:41:36.352Z,529.00
2023-01-22T00:42:06.353Z,531.00
2023-01-22T00:42:36.363Z,532.00
2023-01-22T00:43:06.379Z,535.00
2023-01-22T00:43:36.391Z,535.00
2023-01-22T00:44:06.387Z,534.00
2023-01-22T00:44:36.416Z,533.00
2023-01-22T00:45:06.428Z,533.00
2023-01-22T00:45:36.483Z,535.00
2023-01-22T00:46:06.499Z,536.00
2023-01-22T00:46:36.638Z,535.00
2023-01-22T00:47:06.520Z,534.00
2023-01-22T00:47:36.517Z,533.00
2023-01-22T00:48:06.541Z,533.00
2023-01-22T00:48:36.544Z,532.00
2023-01-22T00:49:06.547Z,533.00
2023-01-22T00:49:36.553Z,534.00
2023-01-22T00:50:06.590Z,534.00
2023-01-22T00:50:36.611Z,533.00
2023-01-22T00:51:06.648Z,533.00
2023-01-22T00:51:36.687Z,535.00
2023-01-22T00:52:06.682Z,534.00
2023-01-22T00:52:36.685Z,535.00
2023-01-22T00:53:06.702Z,533.00
2023-01-22T00:53:36.710Z,533.00
2023-01-22T00:54:06.771Z,533.00
2023-01-22T00:54:36.754Z,533.00
2023-01-22T00:55:06.767Z,535.00
2023-01-22T00:55:36.790Z,536.00
2023-01-22T00:56:06.801Z,536.00
2023-01-22T00:56:36.802Z,536.00
2023-01-22T00:57:06.810Z,535.00
2023-01-22T00:57:36.814Z,537.00
2023-01-22T00:58:06.821Z,537.00
2023-01-22T00:58:36.843Z,537.00
2023-01-22T00:59:06.848Z,538.00
2023-01-22T00:59:36.857Z,540.00
2023-01-22T01:00:06.869Z,539.00
2023-01-22T01:00:36.918Z,535.00
2023-01-22T01:01:07.017Z,537.00
2023-01-22T01:01:37.169Z,538.00
2023-01-22T01:02:07.153Z,538.00
2023-01-22T01:02:37.148Z,538.00
2023-01-22T01:03:07.156Z,536.00
2023-01-22T01:03:37.161Z,533.00
2023-01-22T01:04:07.166Z,538.00
2023-01-22T01:04:37.176Z,537.00
2023-01-22T01:05:07.186Z,535.00
2023-01-22T01:05:37.212Z,535.00
2023-01-22T01:06:07.264Z,535.00
2023-01-22T01:06:37.258Z,534.00
2023-01-22T01:07:07.264Z,535.00
2023-01-22T01:07:37.260Z,539.00
2023-01-22T01:08:07.265Z,540.00
2023-01-22T01:08:37.268Z,538.00
2023-01-22T01:09:07.281Z,540.00
2023-01-22T01:09:37.278Z,541.00
2023-01-22T01:10:07.278Z,541.00
2023-01-22T01:10:37.363Z,542.00
2023-01-22T01:11:07.380Z,541.00
2023-01-22T01:11:37.391Z,543.00
2023-01-22T01:12:07.401Z,542.00
2023-01-22T01:12:37.516Z,541.00
2023-01-22T01:13:07.502Z,543.00
2023-01-22T01:13:37.506Z,544.00
2023-01-22T01:14:07.510Z,541.00
2023-01-22T01:14:37.517Z,541.00
2023-01-22T01:15:07.513Z,540.00
2023-01-22T01:15:37.565Z,540.00
2023-01-22T01:16:07.665Z,539.00
2023-01-22T01:16:37.586Z,539.00
2023-01-22T01:17:07.600Z,539.00
2023-01-22T01:17:37.608Z,536.00
2023-01-22T01:18:07.610Z,536.00
2023-01-22T01:18:37.633Z,537.00
2023-01-22T01:19:07.630Z,538.00
2023-01-22T01:19:37.641Z,537.00
2023-01-22T01:20:07.646Z,536.00
2023-01-22T01:20:37.661Z,537.00
2023-01-22T01:21:07.670Z,536.00
2023-01-22T01:21:37.687Z,537.00
2023-01-22T01:22:07.682Z,536.00
2023-01-22T01:22:37.678Z,535.00
2023-01-22T01:23:07.704Z,535.00
2023-01-22T01:23:37.719Z,535.00
2023-01-22T01:24:07.716Z,535.00
2023-01-22T01:24:37.729Z,537.00
2023-01-22T01:25:07.730Z,535.00
2023-01-22T01:25:37.758Z,534.00
2023-01-22T01:26:07.767Z,532.00
2023-01-22T01:26:37.768Z,532.00
2023-01-22T01:27:07.768Z,533.00
2023-01-22T01:27:37.773Z,533.00
2023-01-22T01:28:07.885Z,531.00
2023-01-22T01:28:37.869Z,532.00
2023-01-22T01:29:07.873Z,532.00
2023-01-22T01:29:37.884Z,531.00
2023-01-22T01:30:07.896Z,531.00
2023-01-22T01:30:38.019Z,531.00
2023-01-22T01:31:08.228Z,531.00
2023-01-22T01:31:38.152Z,529.00
2023-01-22T01:32:08.931Z,529.00
2023-01-22T01:32:38.296Z,529.00
2023-01-22T01:33:08.381Z,532.00
2023-01-22T01:33:38.472Z,535.00
2023-01-22T01:34:08.559Z,534.00
2023-01-22T01:34:38.641Z,534.00
2023-01-22T01:35:08.724Z,534.00
2023-01-22T01:35:38.836Z,534.00
2023-01-22T01:36:08.919Z,534.00
2023-01-22T01:36:50.002Z,533.00
2023-01-22T01:37:09.077Z,535.00
2023-01-22T01:37:39.164Z,536.00
2023-01-22T01:38:09.267Z,535.00
2023-01-22T01:38:39.345Z,535.00
2023-01-22T01:39:09.417Z,535.00
2023-01-22T01:39:39.494Z,537.00
2023-01-22T01:40:09.581Z,534.00
2023-01-22T01:40:39.707Z,532.00
2023-01-22T01:41:09.719Z,533.00
2023-01-22T01:41:39.720Z,533.00
2023-01-22T01:42:09.735Z,531.00
2023-01-22T01:42:39.735Z,533.00
2023-01-22T01:43:09.735Z,532.00
2023-01-22T01:43:39.873Z,532.00
2023-01-22T01:44:09.869Z,531.00
2023-01-22T01:44:39.851Z,531.00
2023-01-22T01:45:09.865Z,529.00
2023-01-22T01:45:39.903Z,531.00
2023-01-22T01:46:09.915Z,530.00
2023-01-22T01:46:39.948Z,530.00
2023-01-22T01:47:09.944Z,532.00
2023-01-22T01:47:39.951Z,531.00
2023-01-22T01:48:09.964Z,532.00
2023-01-22T01:48:39.976Z,531.00
2023-01-22T01:49:09.981Z,531.00
2023-01-22T01:49:39.978Z,529.00
2023-01-22T01:50:09.979Z,530.00
2023-01-22T01:50:39.989Z,528.00
2023-01-22T01:51:10.064Z,527.00
2023-01-22T01:51:40.057Z,526.00
2023-01-22T01:52:10.059Z,526.00
2023-01-22T01:52:40.066Z,524.00
2023-01-22T01:53:10.069Z,523.00
2023-01-22T01:53:40.070Z,523.00
2023-01-22T01:54:10.086Z,524.00
2023-01-22T01:54:40.086Z,524.00
2023-01-22T01:55:10.080Z,524.00
2023-01-22T01:55:40.091Z,524.00
2023-01-22T01:56:10.096Z,526.00
2023-01-22T01:56:40.109Z,526.00
2023-01-22T01:57:10.122Z,527.00
2023-01-22T01:57:40.117Z,529.00
2023-01-22T01:58:10.121Z,530.00
2023-01-22T01:58:40.131Z,530.00
2023-01-22T01:59:10.250Z,530.00
2023-01-22T01:59:40.228Z,529.00
2023-01-22T02:00:10.231Z,530.00
2023-01-22T02:00:40.364Z,529.00
2023-01-22T02:01:10.386Z,530.00
2023-01-22T02:01:40.461Z,530.00
2023-01-22T02:02:10.610Z,531.00
2023-01-22T02:02:40.495Z,529.00
2023-01-22T02:03:10.496Z,529.00
2023-01-22T02:03:40.498Z,529.00
2023-01-22T02:04:10.503Z,528.00
2023-01-22T02:04:40.503Z,528.00
2023-01-22T02:05:10.506Z,530.00
2023-01-22T02:05:40.526Z,529.00
2023-01-22T02:06:10.537Z,530.00
2023-01-22T02:06:40.541Z,529.00
2023-01-22T02:07:10.551Z,530.00
2023-01-22T02:07:40.549Z,530.00
2023-01-22T02:08:10.551Z,529.00
2023-01-22T02:08:40.552Z,530.00
2023-01-22T02:09:10.565Z,529.00
2023-01-22T02:09:40.561Z,529.00
2023-01-22T02:10:10.566Z,531.00
2023-01-22T02:10:40.591Z,531.00
2023-01-22T02:11:10.603Z,530.00
2023-01-22T02:11:40.615Z,530.00
2023-01-22T02:12:10.621Z,531.00
2023-01-22T02:12:40.623Z,532.00
2023-01-22T02:13:10.633Z,530.00
2023-01-22T02:13:40.632Z,531.00
2023-01-22T02:14:10.632Z,529.00
2023-01-22T02:14:40.776Z,531.00
2023-01-22T02:15:10.755Z,530.00
2023-01-22T02:15:40.756Z,530.00
2023-01-22T02:16:10.830Z,528.00
2023-01-22T02:16:40.899Z,528.00
2023-01-22T02:17:10.819Z,528.00
2023-01-22T02:17:40.834Z,529.00
2023-01-22T02:18:10.838Z,528.00
2023-01-22T02:18:40.835Z,530.00
2023-01-22T02:19:10.832Z,529.00
2023-01-22T02:19:40.845Z,529.00
2023-01-22T02:20:10.868Z,527.00
2023-01-22T02:20:40.895Z,529.00
2023-01-22T02:21:10.913Z,531.00
2023-01-22T02:21:40.914Z,530.00
2023-01-22T02:22:10.923Z,530.00
2023-01-22T02:22:40.941Z,529.00
2023-01-22T02:23:10.934Z,529.00
2023-01-22T02:23:40.935Z,528.00
2023-01-22T02:24:10.962Z,529.00
2023-01-22T02:24:40.945Z,532.00
2023-01-22T02:25:10.973Z,532.00
2023-01-22T02:25:40.969Z,531.00
2023-01-22T02:26:10.988Z,533.00
2023-01-22T02:26:41.233Z,532.00
2023-01-22T02:27:11.010Z,534.00
2023-01-22T02:27:41.001Z,532.00
2023-01-22T02:28:11.007Z,534.00
2023-01-22T02:28:41.011Z,535.00
2023-01-22T02:29:11.019Z,532.00
2023-01-22T02:29:41.032Z,531.00
2023-01-22T02:30:11.150Z,532.00
2023-01-22T02:30:41.129Z,531.00
2023-01-22T02:31:11.384Z,529.00
2023-01-22T02:31:41.421Z,529.00
2023-01-22T02:32:11.388Z,531.00
2023-01-22T02:32:41.467Z,530.00
2023-01-22T02:33:11.554Z,531.00
2023-01-22T02:33:41.640Z,533.00
2023-01-22T02:34:11.726Z,531.00
2023-01-22T02:34:41.812Z,531.00
2023-01-22T02:35:11.875Z,530.00
2023-01-22T02:35:41.975Z,529.00
2023-01-22T02:36:12.061Z,528.00
2023-01-22T02:36:42.140Z,527.00
2023-01-22T02:37:12.240Z,527.00
2023-01-22T02:37:42.303Z,528.00
2023-01-22T02:38:12.391Z,528.00
2023-01-22T02:38:42.469Z,526.00
2023-01-22T02:39:12.554Z,526.00
2023-01-22T02:39:42.639Z,526.00
2023-01-22T02:40:12.724Z,526.00
2023-01-22T02:40:42.847Z,527.00
2023-01-22T02:41:12.856Z,527.00
2023-01-22T02:41:42.857Z,526.00
2023-01-22T02:42:12.866Z,527.00
2023-01-22T02:42:42.859Z,529.00
2023-01-22T02:43:12.873Z,530.00
2023-01-22T02:43:42.873Z,531.00
2023-01-22T02:44:12.874Z,529.00
2023-01-22T02:44:42.882Z,530.00
2023-01-22T02:45:12.897Z,530.00
2023-01-22T02:45:43.125Z,530.00
2023-01-22T02:46:12.925Z,530.00
2023-01-22T02:46:42.922Z,530.00
2023-01-22T02:47:12.925Z,532.00
2023-01-22T02:47:42.923Z,532.00
2023-01-22T02:48:12.956Z,531.00
2023-01-22T02:48:42.936Z,531.00
2023-01-22T02:49:12.952Z,531.00
2023-01-22T02:49:42.955Z,533.00
2023-01-22T02:50:12.967Z,534.00
2023-01-22T02:50:42.992Z,531.00
2023-01-22T02:51:13.227Z,531.00
2023-01-22T02:51:43.012Z,530.00
2023-01-22T02:52:13.018Z,531.00
2023-01-22T02:52:43.031Z,531.00
2023-01-22T02:53:13.030Z,529.00
2023-01-22T02:53:43.038Z,530.00
2023-01-22T02:54:13.045Z,529.00
2023-01-22T02:54:43.042Z,531.00
2023-01-22T02:55:13.041Z,530.00
2023-01-22T02:55:43.079Z,531.00
2023-01-22T02:56:13.083Z,531.00
2023-01-22T02:56:43.096Z,533.00
2023-01-22T02:57:13.105Z,533.00
2023-01-22T02:57:43.128Z,532.00
2023-01-22T02:58:13.125Z,532.00
2023-01-22T02:58:43.148Z,533.00
2023-01-22T02:59:13.133Z,533.00
2023-01-22T02:59:43.147Z,533.00
2023-01-22T03:00:13.151Z,532.00
2023-01-22T03:00:43.221Z,529.00
2023-01-22T03:01:19.355Z,531.00
2023-01-22T03:01:43.444Z,530.00
2023-01-22T03:02:13.456Z,529.00
2023-01-22T03:02:43.443Z,529.00
2023-01-22T03:03:13.449Z,531.00
2023-01-22T03:03:43.447Z,531.00
2023-01-22T03:04:13.501Z,529.00
2023-01-22T03:04:43.501Z,528.00
2023-01-22T03:05:13.506Z,529.00
2023-01-22T03:05:43.524Z,529.00
2023-01-22T03:06:13.545Z,530.00
2023-01-22T03:06:43.543Z,530.00
2023-01-22T03:07:13.575Z,531.00
2023-01-22T03:07:43.591Z,528.00
2023-01-22T03:08:13.580Z,529.00
2023-01-22T03:08:43.605Z,528.00
2023-01-22T03:09:13.599Z,528.00
2023-01-22T03:09:43.594Z,527.00
2023-01-22T03:10:13.613Z,528.00
2023-01-22T03:10:43.643Z,533.00
2023-01-22T03:11:13.650Z,536.00
2023-01-22T03:11:43.665Z,535.00
2023-01-22T03:12:13.657Z,533.00
2023-01-22T03:12:43.667Z,535.00
2023-01-22T03:13:13.667Z,532.00
2023-01-22T03:13:43.670Z,532.00
2023-01-22T03:14:13.677Z,531.00
2023-01-22T03:14:43.685Z,530.00
2023-01-22T03:15:13.695Z,530.00
2023-01-22T03:15:43.714Z,532.00
2023-01-22T03:16:13.764Z,533.00
2023-01-22T03:16:43.773Z,531.00
2023-01-22T03:17:13.886Z,529.00
2023-01-22T03:17:43.874Z,529.00
2023-01-22T03:18:13.879Z,529.00
2023-01-22T03:18:43.881Z,530.00
2023-01-22T03:19:13.882Z,531.00
2023-01-22T03:19:43.890Z,531.00
2023-01-22T03:20:13.897Z,531.00
2023-01-22T03:20:43.954Z,529.00
2023-01-22T03:21:13.939Z,528.00
2023-01-22T03:21:43.978Z,527.00
2023-01-22T03:22:13.956Z,528.00
2023-01-22T03:22:43.994Z,527.00
2023-01-22T03:23:14.011Z,527.00
2023-01-22T03:23:44.020Z,527.00
2023-01-22T03:24:14.020Z,527.00
2023-01-22T03:24:44.024Z,526.00
2023-01-22T03:25:14.026Z,525.00
2023-01-22T03:25:44.052Z,525.00
2023-01-22T03:26:14.064Z,525.00
2023-01-22T03:26:44.071Z,526.00
2023-01-22T03:27:14.068Z,526.00
2023-01-22T03:27:44.071Z,526.00
2023-01-22T03:28:14.085Z,527.00
2023-01-22T03:28:44.101Z,527.00
2023-01-22T03:29:14.100Z,526.00
2023-01-22T03:29:44.110Z,529.00
2023-01-22T03:30:14.112Z,531.00
2023-01-22T03:30:44.222Z,531.00
2023-01-22T03:31:14.435Z,533.00
2023-01-22T03:31:44.497Z,533.00
2023-01-22T03:32:14.512Z,531.00
2023-01-22T03:32:44.567Z,532.00
2023-01-22T03:33:14.501Z,532.00
2023-01-22T03:33:44.610Z,533.00
2023-01-22T03:34:14.667Z,534.00
2023-01-22T03:34:44.746Z,533.00
2023-01-22T03:35:14.824Z,533.00
2023-01-22T03:35:44.937Z,533.00
2023-01-22T03:36:15.027Z,532.00
2023-01-22T03:36:45.110Z,531.00
2023-01-22T03:37:15.173Z,532.00
2023-01-22T03:37:45.259Z,532.00
2023-01-22T03:38:15.352Z,531.00
2023-01-22T03:38:45.433Z,529.00
2023-01-22T03:39:15.507Z,528.00
2023-01-22T03:39:45.587Z,528.00
2023-01-22T03:40:15.918Z,528.00
2023-01-22T03:40:45.804Z,531.00
2023-01-22T03:41:15.820Z,531.00
2023-01-22T03:41:45.805Z,533.00
2023-01-22T03:42:15.821Z,532.00
2023-01-22T03:42:45.826Z,531.00
2023-01-22T03:43:15.854Z,530.00
2023-01-22T03:43:45.856Z,529.00
2023-01-22T03:44:15.861Z,529.00
2023-01-22T03:44:45.865Z,529.00
2023-01-22T03:45:15.869Z,529.00
2023-01-22T03:45:45.937Z,529.00
2023-01-22T03:46:16.014Z,529.00
2023-01-22T03:46:46.026Z,529.00
2023-01-22T03:47:16.029Z,528.00
2023-01-22T03:47:46.035Z,529.00
2023-01-22T03:48:21.957Z,528.00
2023-01-22T03:48:46.253Z,528.00
2023-01-22T03:49:16.233Z,529.00
2023-01-22T03:49:46.266Z,528.00
2023-01-22T03:50:16.658Z,528.00
2023-01-22T03:50:46.475Z,528.00
2023-01-22T03:51:16.476Z,530.00
2023-01-22T03:51:46.492Z,527.00
2023-01-22T03:52:16.536Z,526.00
2023-01-22T03:52:46.534Z,526.00
2023-01-22T03:53:16.547Z,526.00
2023-01-22T03:53:46.564Z,525.00
2023-01-22T03:54:16.583Z,525.00
2023-01-22T03:54:46.577Z,523.00
2023-01-22T03:55:16.582Z,525.00
2023-01-22T03:55:46.613Z,526.00
2023-01-22T03:56:16.595Z,523.00
2023-01-22T03:56:46.612Z,526.00
2023-01-22T03:57:16.682Z,524.00
2023-01-22T03:57:46.690Z,524.00
2023-01-22T03:58:16.693Z,523.00
2023-01-22T03:58:46.700Z,523.00
2023-01-22T03:59:16.700Z,521.00
2023-01-22T03:59:46.708Z,520.00
2023-01-22T04:00:17.038Z,520.00
2023-01-22T04:00:46.841Z,522.00
2023-01-22T04:01:16.921Z,523.00
2023-01-22T04:01:46.923Z,524.00
2023-01-22T04:02:16.961Z,524.00
2023-01-22T04:02:46.958Z,523.00
2023-01-22T04:03:16.963Z,523.00
2023-01-22T04:03:46.965Z,525.00
2023-01-22T04:04:17.093Z,523.00
2023-01-22T04:04:47.075Z,525.00
2023-01-22T04:05:17.082Z,524.00
2023-01-22T04:05:47.118Z,524.00
2023-01-22T04:06:17.114Z,522.00
2023-01-22T04:06:47.131Z,520.00
2023-01-22T04:07:17.141Z,522.00
2023-01-22T04:07:47.147Z,523.00
2023-01-22T04:08:17.155Z,523.00
2023-01-22T04:08:47.157Z,522.00
2023-01-22T04:09:17.189Z,524.00
2023-01-22T04:09:47.184Z,525.00
2023-01-22T04:10:17.503Z,527.00
2023-01-22T04:10:47.243Z,525.00
2023-01-22T04:11:17.245Z,525.00
2023-01-22T04:11:47.247Z,525.00
2023-01-22T04:12:17.260Z,525.00
2023-01-22T04:12:47.263Z,526.00
2023-01-22T04:13:17.271Z,525.00
2023-01-22T04:13:47.273Z,527.00
2023-01-22T04:14:17.280Z,527.00
2023-01-22T04:14:47.298Z,527.00
2023-01-22T04:15:17.302Z,527.00
2023-01-22T04:15:47.308Z,529.00
2023-01-22T04:16:17.363Z,530.00
2023-01-22T04:16:47.434Z,530.00
2023-01-22T04:17:17.429Z,528.00
2023-01-22T04:17:47.431Z,527.00
2023-01-22T04:18:17.452Z,528.00
2023-01-22T04:18:47.442Z,528.00
2023-01-22T04:19:17.442Z,530.00
2023-01-22T04:19:47.565Z,530.00
2023-01-22T04:20:17.872Z,530.00
2023-01-22T04:20:47.553Z,531.00
2023-01-22T04:21:17.554Z,529.00
2023-01-22T04:21:47.556Z,529.00
2023-01-22T04:22:17.567Z,529.00
2023-01-22T04:22:47.578Z,529.00
2023-01-22T04:23:17.586Z,527.00
2023-01-22T04:23:47.602Z,528.00
2023-01-22T04:24:17.618Z,531.00
2023-01-22T04:24:47.626Z,530.00
2023-01-22T04:25:17.643Z,530.00
2023-01-22T04:25:47.659Z,530.00
2023-01-22T04:26:17.667Z,531.00
2023-01-22T04:26:47.773Z,532.00
2023-01-22T04:27:17.809Z,534.00
2023-01-22T04:27:47.798Z,533.00
2023-01-22T04:28:17.801Z,534.00
2023-01-22T04:28:47.809Z,535.00
2023-01-22T04:29:17.814Z,535.00
2023-01-22T04:29:47.824Z,535.00
2023-01-22T04:30:18.043Z,534.00
2023-01-22T04:30:48.050Z,534.00
2023-01-22T04:31:18.145Z,533.00
2023-01-22T04:31:48.043Z,532.00
2023-01-22T04:32:18.032Z,532.00
2023-01-22T04:32:48.115Z,532.00
2023-01-22T04:33:18.197Z,534.00
2023-01-22T04:33:48.308Z,534.00
2023-01-22T04:34:18.399Z,533.00
2023-01-22T04:34:48.499Z,533.00
2023-01-22T04:35:18.696Z,531.00
2023-01-22T04:35:48.631Z,529.00
2023-01-22T04:36:18.714Z,529.00
2023-01-22T04:36:48.799Z,526.00
2023-01-22T04:37:18.886Z,527.00
2023-01-22T04:37:48.967Z,530.00
2023-01-22T04:38:19.049Z,527.00
2023-01-22T04:38:49.165Z,530.00
2023-01-22T04:39:19.134Z,532.00
2023-01-22T04:39:49.216Z,531.00
2023-01-22T04:40:19.603Z,530.00
2023-01-22T04:40:49.394Z,528.00
2023-01-22T04:41:19.411Z,526.00
2023-01-22T04:41:49.410Z,526.00
2023-01-22T04:42:19.423Z,528.00
2023-01-22T04:42:49.444Z,527.00
2023-01-22T04:43:19.455Z,527.00
2023-01-22T04:43:49.488Z,530.00
2023-01-22T04:44:19.490Z,528.00
2023-01-22T04:44:49.499Z,529.00
2023-01-22T04:45:19.493Z,528.00
2023-01-22T04:45:49.585Z,528.00
2023-01-22T04:46:19.645Z,527.00
2023-01-22T04:46:49.657Z,526.00
2023-01-22T04:47:19.666Z,527.00
2023-01-22T04:47:49.668Z,529.00
2023-01-22T04:48:19.683Z,526.00
2023-01-22T04:48:49.720Z,526.00
2023-01-22T04:49:19.726Z,527.00
2023-01-22T04:49:49.733Z,526.00
2023-01-22T04:50:20.233Z,526.00
2023-01-22T04:50:49.948Z,526.00
2023-01-22T04:51:19.911Z,526.00
2023-01-22T04:51:49.928Z,524.00
2023-01-22T04:52:19.921Z,525.00
2023-01-22T04:52:49.922Z,523.00
2023-01-22T04:53:19.941Z,523.00
2023-01-22T04:53:49.959Z,522.00
2023-01-22T04:54:19.954Z,520.00
2023-01-22T04:54:49.963Z,519.00
2023-01-22T04:55:19.961Z,521.00
2023-01-22T04:55:49.989Z,522.00
2023-01-22T04:56:19.989Z,524.00
2023-01-22T04:56:50.000Z,522.00
2023-01-22T04:57:20.016Z,519.00
2023-01-22T04:57:50.023Z,521.00
2023-01-22T04:58:20.033Z,521.00
2023-01-22T04:58:50.053Z,519.00
2023-01-22T04:59:20.037Z,519.00
2023-01-22T04:59:50.043Z,520.00
2023-01-22T05:00:20.286Z,521.00
2023-01-22T05:00:50.159Z,521.00
2023-01-22T05:01:20.197Z,521.00
2023-01-22T05:01:50.207Z,520.00
2023-01-22T05:02:20.218Z,519.00
2023-01-22T05:02:50.205Z,520.00
2023-01-22T05:03:20.211Z,518.00
2023-01-22T05:03:50.229Z,518.00
2023-01-22T05:04:20.249Z,519.00
2023-01-22T05:04:50.244Z,520.00
2023-01-22T05:05:20.256Z,521.00
2023-01-22T05:05:50.265Z,521.00
2023-01-22T05:06:20.405Z,519.00
2023-01-22T05:06:50.273Z,518.00
2023-01-22T05:07:20.275Z,519.00
2023-01-22T05:07:50.274Z,518.00
2023-01-22T05:08:20.276Z,517.00
2023-01-22T05:08:50.311Z,519.00
2023-01-22T05:09:20.321Z,519.00
2023-01-22T05:09:50.327Z,519.00
2023-01-22T05:10:20.596Z,519.00
2023-01-22T05:10:50.424Z,520.00
2023-01-22T05:11:20.427Z,519.00
2023-01-22T05:11:50.431Z,519.00
2023-01-22T05:12:20.442Z,518.00
2023-01-22T05:12:50.439Z,518.00
2023-01-22T05:13:20.458Z,518.00
2023-01-22T05:13:50.494Z,519.00
2023-01-22T05:14:20.496Z,519.00
2023-01-22T05:14:50.498Z,520.00
2023-01-22T05:15:24.561Z,521.00
2023-01-22T05:15:50.641Z,520.00
2023-01-22T05:16:20.636Z,519.00
2023-01-22T05:16:50.639Z,518.00
2023-01-22T05:17:20.646Z,519.00
2023-01-22T05:17:50.646Z,521.00
2023-01-22T05:18:20.660Z,520.00
2023-01-22T05:18:50.704Z,521.00
2023-01-22T05:19:20.719Z,522.00
2023-01-22T05:19:50.724Z,520.00
2023-01-22T05:20:21.123Z,521.00
2023-01-22T05:20:50.840Z,522.00
2023-01-22T05:21:20.831Z,521.00
2023-01-22T05:21:50.963Z,520.00
2023-01-22T05:22:20.840Z,521.00
2023-01-22T05:22:50.830Z,521.00
2023-01-22T05:23:20.831Z,522.00
2023-01-22T05:23:50.870Z,521.00
2023-01-22T05:24:20.885Z,520.00
2023-01-22T05:24:50.896Z,519.00
2023-01-22T05:25:20.901Z,523.00
2023-01-22T05:25:50.893Z,525.00
2023-01-22T05:26:20.901Z,524.00
2023-01-22T05:26:50.907Z,521.00
2023-01-22T05:27:20.914Z,523.00
2023-01-22T05:27:50.928Z,522.00
2023-01-22T05:28:20.934Z,522.00
2023-01-22T05:28:50.951Z,523.00
2023-01-22T05:29:20.963Z,523.00
2023-01-22T05:29:50.965Z,522.00
2023-01-22T05:30:21.019Z,522.00
2023-01-22T05:30:51.077Z,521.00
2023-01-22T05:31:21.262Z,519.00
2023-01-22T05:31:51.115Z,518.00
2023-01-22T05:32:21.211Z,518.00
2023-01-22T05:32:51.305Z,516.00
2023-01-22T05:33:21.382Z,517.00
2023-01-22T05:33:51.481Z,517.00
2023-01-22T05:34:21.571Z,518.00
2023-01-22T05:34:51.658Z,518.00
2023-01-22T05:35:21.740Z,518.00
2023-01-22T05:35:51.816Z,520.00
2023-01-22T05:36:21.905Z,520.00
2023-01-22T05:36:51.991Z,521.00
2023-01-22T05:37:22.220Z,521.00
2023-01-22T05:37:52.151Z,520.00
2023-01-22T05:38:22.232Z,518.00
2023-01-22T05:38:52.325Z,519.00
2023-01-22T05:39:24.077Z,520.00
2023-01-22T05:39:52.411Z,522.00
2023-01-22T05:40:22.488Z,521.00
2023-01-22T05:40:52.494Z,521.00
2023-01-22T05:41:22.509Z,522.00
2023-01-22T05:41:52.510Z,522.00
2023-01-22T05:42:22.519Z,522.00
2023-01-22T05:42:52.520Z,522.00
2023-01-22T05:43:22.523Z,522.00
2023-01-22T05:43:52.563Z,522.00
2023-01-22T05:44:22.581Z,523.00
2023-01-22T05:44:52.596Z,524.00
2023-01-22T05:45:22.595Z,524.00
2023-01-22T05:45:52.686Z,524.00
2023-01-22T05:46:22.708Z,525.00
2023-01-22T05:46:52.727Z,523.00
2023-01-22T05:47:22.741Z,523.00
2023-01-22T05:47:52.744Z,524.00
2023-01-22T05:48:22.742Z,525.00
2023-01-22T05:48:52.773Z,525.00
2023-01-22T05:49:22.790Z,525.00
2023-01-22T05:49:52.799Z,524.00
2023-01-22T05:50:22.798Z,525.00
2023-01-22T05:50:52.870Z,526.00
2023-01-22T05:51:22.947Z,527.00
2023-01-22T05:51:52.974Z,528.00
2023-01-22T05:52:22.981Z,528.00
2023-01-22T05:52:53.096Z,529.00
2023-01-22T05:53:23.068Z,528.00
2023-01-22T05:53:53.084Z,527.00
2023-01-22T05:54:23.094Z,527.00
2023-01-22T05:54:53.099Z,527.00
2023-01-22T05:55:23.109Z,525.00
2023-01-22T05:55:53.119Z,524.00
2023-01-22T05:56:23.123Z,523.00
2023-01-22T05:56:53.138Z,523.00
2023-01-22T05:57:23.144Z,524.00
2023-01-22T05:57:53.152Z,523.00
2023-01-22T05:58:23.159Z,522.00
2023-01-22T05:58:53.175Z,523.00
2023-01-22T05:59:23.182Z,524.00
2023-01-22T05:59:53.193Z,524.00
2023-01-22T06:00:23.209Z,522.00
2023-01-22T06:00:53.217Z,523.00
2023-01-22T06:01:23.222Z,523.00
2023-01-22T06:01:53.234Z,523.00
2023-01-22T06:02:23.275Z,524.00
2023-01-22T06:02:53.336Z,524.00
2023-01-22T06:03:23.391Z,525.00
2023-01-22T06:03:53.443Z,525.00
2023-01-22T06:04:23.457Z,525.00
2023-01-22T06:04:53.537Z,525.00
2023-01-22T06:05:23.597Z,525.00
2023-01-22T06:05:53.580Z,525.00
2023-01-22T06:06:23.592Z,524.00
2023-01-22T06:06:53.612Z,524.00
2023-01-22T06:07:23.626Z,522.00
2023-01-22T06:07:53.629Z,523.00
2023-01-22T06:08:23.761Z,523.00
2023-01-22T06:08:53.742Z,524.00
2023-01-22T06:09:24.028Z,524.00
2023-01-22T06:09:53.807Z,525.00
2023-01-22T06:10:23.808Z,526.00
2023-01-22T06:10:53.823Z,526.00
2023-01-22T06:11:23.831Z,528.00
2023-01-22T06:11:53.837Z,527.00
2023-01-22T06:12:23.870Z,527.00
2023-01-22T06:12:53.861Z,526.00
2023-01-22T06:13:23.864Z,528.00
2023-01-22T06:13:53.867Z,529.00
2023-01-22T06:14:23.879Z,530.00